Portada
METAR-TAF:

METAR-TAF

Aeroports :

Al-Kuwait, Kuwait

latitud: 29-13N, longitud: 047-59E, altitud: 55 m

Observació

L'informe es va fer fa 37 minuts, a les 20:00 UTC
Vent 6 kt del Oest
Temperatura 12°C
Humitat 40%
Pressió 1018 hPa
Visibilitat 10 km o més
sense núvols per sota de 1500 mi sense presència de cumulonimbus.

METAR: OKBK 192000Z 28006KT CAVOK 12/M01 Q1018 NOSIG

Hora: 23:37 (20:37 UTC)

Pronòstic

L'informe es va fer fa 3 hores i 52 minuts, a les 16:45 UTC
Pronòstic vàlid del 19 a les 18 UTC al 20 a les 24 UTC
Vent 10 kt del Nord/Nord-Oest
Visibilitat: 7000 m
Cel clar

TAF: OKBK 191645Z 1918/2024 33010KT 7000 SKC

Observacions i pronòstics meteorològics de més de 4000 aeroports (METAR i TAF).

Les estacions disponibles són els punts grocs i vermells al mapa.

Posi el ratolí al punt desitjat per veure el nom de l'estació.

Feu clic per veure les observacions i els pronòstics meteorològics.

Per canviar el mapa: feu clic els botons verds amb una creu de color negre per apropar; al botó verd amb un guió per allunyar la imatge; o en les fletxes verdes per a mapes adjacents.


METAR-TAF: